GOATA EGNE-EGNV
Flight info
| Callsign | GOATA |
|---|---|
| Flight time | N/A |
| Altitude | 8000 |
| Route | UPTON DCT GASKO |
| Aircraft | DA42/L-SBDGRY/S |
Departure
| Time | 2026-05-07 19:08 |
|---|---|
| Airport | Retford Gamston Airport (EGNE) |
Arrival
| Time | N/A |
|---|---|
| Airport | Teesside International Airport (EGNV) |
| Time | Latitude | Longitude | Altitude | Speed | Heading |
|---|---|---|---|---|---|
| 2026-05-07 18:48 | 53.28072 | -0.94943 | 85 ft | 0 kts | 119° |
| 2026-05-07 19:01 | 53.28070 | -0.94938 | 86 ft | 3 kts | 136° |
| 2026-05-07 19:01 | 53.28007 | -0.94975 | 87 ft | 14 kts | 208° |
| 2026-05-07 19:01 | 53.27922 | -0.95069 | 85 ft | 16 kts | 255° |
| 2026-05-07 19:02 | 53.27933 | -0.95234 | 84 ft | 16 kts | 270° |
| 2026-05-07 19:02 | 53.27913 | -0.95453 | 86 ft | 20 kts | 258° |
| 2026-05-07 19:02 | 53.27882 | -0.95700 | 85 ft | 24 kts | 258° |
| 2026-05-07 19:02 | 53.27836 | -0.95914 | 74 ft | 18 kts | 232° |
| 2026-05-07 19:03 | 53.27832 | -0.95987 | 75 ft | 6 kts | 213° |
| 2026-05-07 19:03 | 53.27826 | -0.95982 | 76 ft | 0 kts | 119° |
| 2026-05-07 19:06 | 53.27837 | -0.95990 | 75 ft | 8 kts | 283° |
| 2026-05-07 19:06 | 53.27840 | -0.96173 | 67 ft | 20 kts | 311° |
| 2026-05-07 19:07 | 53.27972 | -0.96352 | 68 ft | 27 kts | 320° |
| 2026-05-07 19:07 | 53.28138 | -0.96580 | 77 ft | 34 kts | 321° |
| 2026-05-07 19:07 | 53.28207 | -0.96683 | 79 ft | 9 kts | 129° |
| 2026-05-07 19:07 | 53.28176 | -0.96628 | 70 ft | 19 kts | 135° |
| 2026-05-07 19:08 | 53.27920 | -0.96281 | 79 ft | 69 kts | 141° |
| 2026-05-07 19:08 | 53.27501 | -0.95715 | 223 ft | 77 kts | 138° |
| 2026-05-07 19:08 | 53.27082 | -0.95182 | 521 ft | 79 kts | 138° |
| 2026-05-07 19:08 | 53.26660 | -0.94604 | 832 ft | 77 kts | 138° |
| 2026-05-07 19:09 | 53.26220 | -0.94094 | 1163 ft | 79 kts | 167° |
| 2026-05-07 19:09 | 53.25693 | -0.94335 | 1472 ft | 87 kts | 211° |
| 2026-05-07 19:09 | 53.25322 | -0.95135 | 1811 ft | 88 kts | 225° |
| 2026-05-07 19:09 | 53.24982 | -0.95981 | 2129 ft | 87 kts | 229° |
| 2026-05-07 19:10 | 53.24649 | -0.96831 | 2424 ft | 90 kts | 229° |
| 2026-05-07 19:10 | 53.24325 | -0.97706 | 2757 ft | 87 kts | 231° |
| 2026-05-07 19:10 | 53.24001 | -0.98584 | 2979 ft | 96 kts | 231° |
| 2026-05-07 19:10 | 53.23495 | -0.99490 | 2971 ft | 116 kts | 208° |
| 2026-05-07 19:11 | 53.22784 | -1.00189 | 2991 ft | 117 kts | 206° |
| 2026-05-07 19:11 | 53.22081 | -1.00893 | 2999 ft | 118 kts | 207° |
| 2026-05-07 19:11 | 53.21388 | -1.01601 | 2974 ft | 120 kts | 207° |
| 2026-05-07 19:11 | 53.20674 | -1.02326 | 2981 ft | 120 kts | 208° |
| 2026-05-07 19:12 | 53.19964 | -1.03020 | 3006 ft | 117 kts | 207° |
| 2026-05-07 19:12 | 53.19264 | -1.03715 | 3003 ft | 117 kts | 207° |
| 2026-05-07 19:12 | 53.18730 | -1.04711 | 3002 ft | 123 kts | 248° |
| 2026-05-07 19:12 | 53.18844 | -1.06145 | 2951 ft | 133 kts | 296° |
| 2026-05-07 19:13 | 53.19480 | -1.07297 | 2925 ft | 135 kts | 309° |
| 2026-05-07 19:13 | 53.20104 | -1.08437 | 2949 ft | 132 kts | 309° |
| 2026-05-07 19:13 | 53.20753 | -1.09505 | 2947 ft | 131 kts | 316° |
| 2026-05-07 19:13 | 53.21483 | -1.10428 | 2927 ft | 132 kts | 322° |
| 2026-05-07 19:14 | 53.22261 | -1.11231 | 2936 ft | 131 kts | 327° |
| 2026-05-07 19:14 | 53.23067 | -1.11929 | 2947 ft | 132 kts | 332° |
| 2026-05-07 19:14 | 53.23912 | -1.12561 | 2951 ft | 133 kts | 336° |
| 2026-05-07 19:14 | 53.24783 | -1.13096 | 2976 ft | 133 kts | 340° |
| 2026-05-07 19:15 | 53.25689 | -1.13472 | 2989 ft | 135 kts | 348° |
| 2026-05-07 19:15 | 53.26628 | -1.13739 | 2989 ft | 136 kts | 349° |
| 2026-05-07 19:15 | 53.27564 | -1.13931 | 3021 ft | 136 kts | 355° |
| 2026-05-07 19:15 | 53.28512 | -1.13946 | 3017 ft | 137 kts | 2° |
| 2026-05-07 19:16 | 53.29473 | -1.13876 | 3010 ft | 139 kts | 4° |
| 2026-05-07 19:16 | 53.30429 | -1.13696 | 3025 ft | 138 kts | 11° |
| 2026-05-07 19:16 | 53.31373 | -1.13367 | 3018 ft | 139 kts | 15° |
| 2026-05-07 19:16 | 53.32297 | -1.12903 | 3019 ft | 139 kts | 22° |
| 2026-05-07 19:17 | 53.33256 | -1.12786 | 3003 ft | 141 kts | 343° |
| 2026-05-07 19:17 | 53.34048 | -1.13683 | 2989 ft | 137 kts | 303° |
| 2026-05-07 19:17 | 53.34565 | -1.14988 | 3015 ft | 134 kts | 297° |
| 2026-05-07 19:17 | 53.35075 | -1.16287 | 3049 ft | 132 kts | 303° |
| 2026-05-07 19:18 | 53.35813 | -1.17076 | 3403 ft | 121 kts | 334° |
| 2026-05-07 19:18 | 53.36576 | -1.17496 | 3792 ft | 111 kts | 340° |
| 2026-05-07 19:18 | 53.37296 | -1.17880 | 4104 ft | 107 kts | 336° |
| 2026-05-07 19:18 | 53.37985 | -1.18246 | 4421 ft | 105 kts | 338° |
| 2026-05-07 19:19 | 53.38675 | -1.18611 | 4742 ft | 103 kts | 338° |
| 2026-05-07 19:19 | 53.39357 | -1.18970 | 5040 ft | 102 kts | 337° |
| 2026-05-07 19:19 | 53.40026 | -1.19322 | 5357 ft | 100 kts | 337° |
| 2026-05-07 19:19 | 53.40704 | -1.19676 | 5625 ft | 103 kts | 338° |
| 2026-05-07 19:20 | 53.41386 | -1.20026 | 5909 ft | 102 kts | 337° |
| 2026-05-07 19:20 | 53.42058 | -1.20371 | 6235 ft | 99 kts | 336° |
| 2026-05-07 19:20 | 53.42708 | -1.20721 | 6536 ft | 98 kts | 335° |
| 2026-05-07 19:20 | 53.43346 | -1.21092 | 6796 ft | 100 kts | 335° |
| 2026-05-07 19:21 | 53.44003 | -1.21466 | 7076 ft | 99 kts | 334° |
| 2026-05-07 19:21 | 53.44665 | -1.21839 | 7330 ft | 102 kts | 335° |
| 2026-05-07 19:21 | 53.45342 | -1.22217 | 7603 ft | 102 kts | 334° |
| 2026-05-07 19:21 | 53.46022 | -1.22602 | 7881 ft | 105 kts | 334° |
| 2026-05-07 19:22 | 53.46729 | -1.23018 | 8056 ft | 117 kts | 334° |
| 2026-05-07 19:22 | 53.47557 | -1.23512 | 8097 ft | 135 kts | 335° |
| 2026-05-07 19:22 | 53.48487 | -1.24071 | 8088 ft | 149 kts | 335° |
| 2026-05-07 19:22 | 53.49484 | -1.24695 | 8066 ft | 157 kts | 335° |
| 2026-05-07 19:23 | 53.50525 | -1.25325 | 8040 ft | 159 kts | 336° |
| 2026-05-07 19:23 | 53.51564 | -1.25945 | 8042 ft | 157 kts | 336° |
| 2026-05-07 19:23 | 53.52591 | -1.26554 | 8041 ft | 156 kts | 336° |
| 2026-05-07 19:23 | 53.53613 | -1.27144 | 8042 ft | 155 kts | 337° |
| 2026-05-07 19:24 | 53.54641 | -1.27718 | 8035 ft | 155 kts | 337° |
| 2026-05-07 19:24 | 53.55664 | -1.28289 | 8036 ft | 155 kts | 337° |
| 2026-05-07 19:24 | 53.56669 | -1.28849 | 8035 ft | 154 kts | 337° |
| 2026-05-07 19:24 | 53.57684 | -1.29415 | 8037 ft | 153 kts | 337° |
| 2026-05-07 19:25 | 53.58698 | -1.29973 | 8032 ft | 153 kts | 338° |
| 2026-05-07 19:25 | 53.59642 | -1.30747 | 8035 ft | 150 kts | 325° |
| 2026-05-07 19:25 | 53.60547 | -1.31621 | 8031 ft | 150 kts | 325° |
| 2026-05-07 19:25 | 53.61449 | -1.32493 | 8030 ft | 149 kts | 325° |
| 2026-05-07 19:26 | 53.62349 | -1.33366 | 8032 ft | 149 kts | 325° |
| 2026-05-07 19:26 | 53.63246 | -1.34254 | 8034 ft | 149 kts | 324° |
| 2026-05-07 19:26 | 53.64137 | -1.35155 | 8033 ft | 149 kts | 324° |
| 2026-05-07 19:26 | 53.65026 | -1.36054 | 8028 ft | 150 kts | 324° |
| 2026-05-07 19:27 | 53.65918 | -1.36954 | 8030 ft | 149 kts | 324° |
| 2026-05-07 19:27 | 53.66810 | -1.37851 | 8031 ft | 149 kts | 324° |
| 2026-05-07 19:27 | 53.67699 | -1.38748 | 8030 ft | 149 kts | 324° |
| 2026-05-07 19:27 | 53.68589 | -1.39645 | 8030 ft | 149 kts | 324° |
| 2026-05-07 19:28 | 53.69478 | -1.40541 | 8031 ft | 149 kts | 324° |
| 2026-05-07 19:28 | 53.70365 | -1.41438 | 8030 ft | 149 kts | 324° |
| 2026-05-07 19:28 | 53.71253 | -1.42337 | 8028 ft | 149 kts | 324° |
| 2026-05-07 19:28 | 53.72142 | -1.43233 | 8030 ft | 149 kts | 324° |
| 2026-05-07 19:29 | 53.73034 | -1.44133 | 8032 ft | 149 kts | 324° |
| 2026-05-07 19:29 | 53.73929 | -1.45034 | 8031 ft | 150 kts | 324° |
| 2026-05-07 19:29 | 53.74824 | -1.45909 | 8028 ft | 150 kts | 324° |
| 2026-05-07 19:29 | 53.75731 | -1.46791 | 8028 ft | 151 kts | 324° |
| 2026-05-07 19:30 | 53.76641 | -1.47678 | 8028 ft | 151 kts | 324° |
| 2026-05-07 19:30 | 53.77543 | -1.48582 | 8027 ft | 150 kts | 322° |
| 2026-05-07 19:30 | 53.78431 | -1.49512 | 8025 ft | 150 kts | 322° |
| 2026-05-07 19:30 | 53.79319 | -1.50445 | 8029 ft | 151 kts | 322° |
| 2026-05-07 19:31 | 53.80213 | -1.51374 | 8030 ft | 151 kts | 322° |
| 2026-05-07 19:31 | 53.81101 | -1.52325 | 8026 ft | 151 kts | 322° |
| 2026-05-07 19:31 | 53.81985 | -1.53274 | 8027 ft | 151 kts | 322° |
| 2026-05-07 19:31 | 53.82870 | -1.54222 | 8027 ft | 150 kts | 322° |
| 2026-05-07 19:32 | 53.83752 | -1.55163 | 8028 ft | 150 kts | 322° |
| 2026-05-07 19:32 | 53.84636 | -1.56108 | 8028 ft | 150 kts | 322° |
| 2026-05-07 19:32 | 53.85520 | -1.57053 | 8031 ft | 150 kts | 321° |
| 2026-05-07 19:32 | 53.86413 | -1.57987 | 8028 ft | 151 kts | 322° |
| 2026-05-07 19:33 | 53.87304 | -1.58917 | 8028 ft | 150 kts | 322° |
| 2026-05-07 19:33 | 53.88193 | -1.59842 | 8027 ft | 150 kts | 322° |
| 2026-05-07 19:33 | 53.89081 | -1.60766 | 8027 ft | 149 kts | 322° |
| 2026-05-07 19:33 | 53.89964 | -1.61681 | 8027 ft | 148 kts | 322° |
| 2026-05-07 19:34 | 53.90845 | -1.62585 | 8025 ft | 148 kts | 322° |
| 2026-05-07 19:34 | 53.91724 | -1.63489 | 8026 ft | 148 kts | 322° |
| 2026-05-07 19:34 | 53.92601 | -1.64398 | 8028 ft | 148 kts | 322° |
| 2026-05-07 19:34 | 53.93482 | -1.65311 | 8029 ft | 149 kts | 322° |
| 2026-05-07 19:35 | 53.94370 | -1.66219 | 8027 ft | 149 kts | 323° |
| 2026-05-07 19:35 | 53.95268 | -1.67119 | 8028 ft | 150 kts | 323° |
| 2026-05-07 19:35 | 53.96167 | -1.68019 | 8029 ft | 150 kts | 323° |
| 2026-05-07 19:35 | 53.97062 | -1.68923 | 8029 ft | 149 kts | 322° |
| 2026-05-07 19:36 | 53.97950 | -1.69845 | 8028 ft | 149 kts | 322° |
| 2026-05-07 19:36 | 53.98828 | -1.70754 | 8028 ft | 150 kts | 322° |
| 2026-05-07 19:36 | 53.99721 | -1.71670 | 8027 ft | 150 kts | 322° |
| 2026-05-07 19:36 | 54.00611 | -1.72582 | 8027 ft | 149 kts | 322° |
| 2026-05-07 19:37 | 54.01498 | -1.73491 | 8025 ft | 148 kts | 322° |
| 2026-05-07 19:37 | 54.02381 | -1.74393 | 8023 ft | 148 kts | 322° |
| 2026-05-07 19:37 | 54.03261 | -1.75292 | 8024 ft | 147 kts | 322° |
| 2026-05-07 19:37 | 54.04139 | -1.76187 | 8023 ft | 147 kts | 322° |
| 2026-05-07 19:38 | 54.05017 | -1.77083 | 8021 ft | 147 kts | 322° |
| 2026-05-07 19:38 | 54.05894 | -1.77979 | 8020 ft | 147 kts | 322° |
| 2026-05-07 19:38 | 54.06769 | -1.78873 | 8019 ft | 146 kts | 322° |
| 2026-05-07 19:38 | 54.07640 | -1.79766 | 8020 ft | 146 kts | 322° |
| 2026-05-07 19:39 | 54.08498 | -1.80672 | 8021 ft | 144 kts | 320° |
| 2026-05-07 19:39 | 54.09344 | -1.81604 | 8024 ft | 144 kts | 320° |
| 2026-05-07 19:39 | 54.10190 | -1.82535 | 8024 ft | 145 kts | 320° |
| 2026-05-07 19:39 | 54.10750 | -1.83150 | 8022 ft | 144 kts | 320° |
| 2026-05-07 19:40 | 54.11880 | -1.84391 | 8022 ft | 144 kts | 320° |
| 2026-05-07 19:40 | 54.12708 | -1.85302 | 8022 ft | 143 kts | 320° |
| 2026-05-07 19:40 | 54.13545 | -1.86209 | 8022 ft | 142 kts | 322° |
| 2026-05-07 19:40 | 54.14394 | -1.87081 | 8021 ft | 142 kts | 322° |
| 2026-05-07 19:41 | 54.15244 | -1.87947 | 8018 ft | 142 kts | 322° |
| 2026-05-07 19:41 | 54.16093 | -1.88806 | 8020 ft | 141 kts | 322° |
| 2026-05-07 19:41 | 54.16938 | -1.89661 | 8021 ft | 142 kts | 322° |
| 2026-05-07 19:41 | 54.17789 | -1.90524 | 8021 ft | 142 kts | 322° |
| 2026-05-07 19:42 | 54.18355 | -1.91098 | 8019 ft | 143 kts | 322° |
| 2026-05-07 19:42 | 54.19210 | -1.91966 | 8021 ft | 144 kts | 322° |
| 2026-05-07 19:42 | 54.20076 | -1.92851 | 8022 ft | 146 kts | 322° |
| 2026-05-07 19:42 | 54.20943 | -1.93740 | 8020 ft | 145 kts | 322° |
| 2026-05-07 19:43 | 54.21875 | -1.94431 | 8015 ft | 152 kts | 349° |
| 2026-05-07 19:43 | 54.22910 | -1.93991 | 8019 ft | 157 kts | 25° |
| 2026-05-07 19:43 | 54.23839 | -1.93019 | 8021 ft | 157 kts | 42° |
| 2026-05-07 19:43 | 54.24606 | -1.91698 | 8024 ft | 156 kts | 48° |
| 2026-05-07 19:44 | 54.25358 | -1.90342 | 8031 ft | 158 kts | 48° |
| 2026-05-07 19:44 | 54.26116 | -1.88970 | 8031 ft | 159 kts | 48° |
| 2026-05-07 19:44 | 54.26875 | -1.87591 | 8030 ft | 160 kts | 48° |
| 2026-05-07 19:44 | 54.27638 | -1.86205 | 8029 ft | 160 kts | 48° |
| 2026-05-07 19:45 | 54.28390 | -1.84835 | 8030 ft | 161 kts | 48° |
| 2026-05-07 19:45 | 54.29156 | -1.83441 | 8028 ft | 160 kts | 48° |
| 2026-05-07 19:45 | 54.29930 | -1.82029 | 8030 ft | 161 kts | 48° |
| 2026-05-07 19:45 | 54.30686 | -1.80646 | 8028 ft | 162 kts | 48° |
| 2026-05-07 19:46 | 54.31461 | -1.79232 | 8029 ft | 163 kts | 48° |
| 2026-05-07 19:46 | 54.32228 | -1.77807 | 8013 ft | 162 kts | 48° |
| 2026-05-07 19:46 | 54.32974 | -1.76382 | 7753 ft | 163 kts | 50° |
| 2026-05-07 19:46 | 54.33722 | -1.74917 | 7521 ft | 162 kts | 50° |
| 2026-05-07 19:47 | 54.34459 | -1.73481 | 7336 ft | 159 kts | 50° |
| 2026-05-07 19:47 | 54.35195 | -1.72092 | 7106 ft | 158 kts | 49° |
| 2026-05-07 19:47 | 54.35942 | -1.70708 | 6892 ft | 156 kts | 50° |
| 2026-05-07 19:47 | 54.36681 | -1.69331 | 6611 ft | 159 kts | 49° |
| 2026-05-07 19:48 | 54.37429 | -1.67956 | 6417 ft | 155 kts | 50° |
| 2026-05-07 19:48 | 54.38149 | -1.66625 | 6238 ft | 153 kts | 50° |
| 2026-05-07 19:48 | 54.38863 | -1.65301 | 6067 ft | 150 kts | 50° |
| 2026-05-07 19:48 | 54.39557 | -1.64020 | 5988 ft | 141 kts | 51° |
| 2026-05-07 19:49 | 54.40232 | -1.62769 | 5791 ft | 146 kts | 51° |
| 2026-05-07 19:49 | 54.40930 | -1.61488 | 5609 ft | 148 kts | 50° |
| 2026-05-07 19:49 | 54.41638 | -1.60212 | 5450 ft | 146 kts | 49° |
| 2026-05-07 19:49 | 54.42336 | -1.58954 | 5262 ft | 146 kts | 49° |
| 2026-05-07 19:50 | 54.43039 | -1.57663 | 5034 ft | 150 kts | 50° |
| 2026-05-07 19:50 | 54.43750 | -1.56346 | 4814 ft | 151 kts | 50° |
| 2026-05-07 19:50 | 54.44472 | -1.55026 | 4581 ft | 152 kts | 50° |
| 2026-05-07 19:50 | 54.45193 | -1.53726 | 4394 ft | 150 kts | 50° |
| 2026-05-07 19:51 | 54.45910 | -1.52443 | 4217 ft | 148 kts | 49° |
| 2026-05-07 19:51 | 54.46613 | -1.51167 | 4038 ft | 146 kts | 51° |
| 2026-05-07 19:51 | 54.47303 | -1.49891 | 3816 ft | 146 kts | 51° |
| 2026-05-07 19:51 | 54.47992 | -1.48594 | 3581 ft | 148 kts | 52° |
| 2026-05-07 19:52 | 54.48694 | -1.47286 | 3378 ft | 148 kts | 52° |
| 2026-05-07 19:52 | 54.49375 | -1.45985 | 3215 ft | 146 kts | 53° |
| 2026-05-07 19:52 | 54.50046 | -1.44673 | 3035 ft | 147 kts | 52° |
| 2026-05-07 19:52 | 54.50734 | -1.43371 | 3012 ft | 147 kts | 51° |
| 2026-05-07 19:53 | 54.51421 | -1.42064 | 3014 ft | 147 kts | 52° |
| 2026-05-07 19:53 | 54.52105 | -1.40754 | 3014 ft | 147 kts | 52° |
| 2026-05-07 19:53 | 54.52793 | -1.39454 | 3015 ft | 146 kts | 51° |
| 2026-05-07 19:53 | 54.53480 | -1.38163 | 2995 ft | 146 kts | 51° |
| 2026-05-07 19:54 | 54.54167 | -1.36866 | 2974 ft | 147 kts | 51° |
| 2026-05-07 19:54 | 54.54858 | -1.35568 | 2991 ft | 147 kts | 51° |
| 2026-05-07 19:54 | 54.55551 | -1.34282 | 3016 ft | 146 kts | 51° |
| 2026-05-07 19:54 | 54.56243 | -1.33015 | 3024 ft | 146 kts | 45° |
| 2026-05-07 19:55 | 54.57143 | -1.32244 | 2997 ft | 149 kts | 13° |
| 2026-05-07 19:55 | 54.58149 | -1.31813 | 2994 ft | 149 kts | 13° |
| 2026-05-07 19:55 | 54.59127 | -1.31246 | 3005 ft | 147 kts | 33° |
| 2026-05-07 19:55 | 54.59720 | -1.29908 | 2997 ft | 138 kts | 82° |
| 2026-05-07 19:56 | 54.59605 | -1.28397 | 2994 ft | 122 kts | 131° |
| 2026-05-07 19:56 | 54.58957 | -1.27706 | 3004 ft | 108 kts | 181° |
| 2026-05-07 19:56 | 54.58329 | -1.28265 | 3031 ft | 107 kts | 232° |
| 2026-05-07 19:56 | 54.58001 | -1.29435 | 3018 ft | 112 kts | 238° |
| 2026-05-07 19:57 | 54.57586 | -1.30567 | 2983 ft | 111 kts | 226° |
| 2026-05-07 19:57 | 54.57089 | -1.31566 | 2988 ft | 108 kts | 223° |
| 2026-05-07 19:57 | 54.56590 | -1.32538 | 2986 ft | 108 kts | 223° |
| 2026-05-07 19:57 | 54.56079 | -1.33485 | 2994 ft | 108 kts | 222° |
| 2026-05-07 19:58 | 54.55817 | -1.34712 | 2985 ft | 120 kts | 266° |
| 2026-05-07 19:58 | 54.56232 | -1.36011 | 3024 ft | 134 kts | 312° |
| 2026-05-07 19:58 | 54.57146 | -1.36521 | 3022 ft | 146 kts | 0° |
| 2026-05-07 19:58 | 54.58057 | -1.35819 | 2993 ft | 147 kts | 47° |
| 2026-05-07 19:59 | 54.58650 | -1.34420 | 3006 ft | 143 kts | 61° |
| 2026-05-07 19:59 | 54.59227 | -1.32993 | 2983 ft | 146 kts | 58° |
| 2026-05-07 19:59 | 54.59745 | -1.31558 | 2983 ft | 140 kts | 81° |
| 2026-05-07 19:59 | 54.59652 | -1.30021 | 2961 ft | 124 kts | 128° |
| 2026-05-07 20:00 | 54.59027 | -1.29246 | 3007 ft | 107 kts | 178° |
| 2026-05-07 20:00 | 54.58364 | -1.29703 | 2987 ft | 107 kts | 215° |
| 2026-05-07 20:00 | 54.57777 | -1.30511 | 2990 ft | 107 kts | 214° |
| 2026-05-07 20:00 | 54.57209 | -1.31331 | 2993 ft | 107 kts | 220° |
| 2026-05-07 20:01 | 54.56681 | -1.32242 | 2979 ft | 108 kts | 221° |
| 2026-05-07 20:01 | 54.56157 | -1.33169 | 2986 ft | 107 kts | 221° |
| 2026-05-07 20:01 | 54.55763 | -1.34245 | 2897 ft | 114 kts | 252° |
| 2026-05-07 20:01 | 54.55979 | -1.35632 | 2648 ft | 133 kts | 297° |
| 2026-05-07 20:02 | 54.56789 | -1.36523 | 2394 ft | 148 kts | 342° |
| 2026-05-07 20:02 | 54.57815 | -1.36343 | 2138 ft | 151 kts | 26° |
| 2026-05-07 20:02 | 54.58675 | -1.35351 | 1953 ft | 149 kts | 40° |
| 2026-05-07 20:02 | 54.59484 | -1.34244 | 1897 ft | 148 kts | 47° |
| 2026-05-07 20:03 | 54.60262 | -1.33094 | 1899 ft | 145 kts | 44° |
| 2026-05-07 20:03 | 54.61040 | -1.31981 | 1890 ft | 144 kts | 49° |
| 2026-05-07 20:03 | 54.61803 | -1.30853 | 1853 ft | 148 kts | 39° |
| 2026-05-07 20:03 | 54.62637 | -1.29819 | 1832 ft | 147 kts | 41° |
| 2026-05-07 20:04 | 54.63444 | -1.28766 | 1843 ft | 142 kts | 52° |
| 2026-05-07 20:04 | 54.63792 | -1.27363 | 1887 ft | 118 kts | 103° |
| 2026-05-07 20:04 | 54.63449 | -1.26247 | 1883 ft | 101 kts | 152° |
| 2026-05-07 20:04 | 54.62783 | -1.26175 | 1866 ft | 101 kts | 197° |
| 2026-05-07 20:05 | 54.62115 | -1.26576 | 1852 ft | 101 kts | 196° |
| 2026-05-07 20:05 | 54.61470 | -1.26972 | 1875 ft | 98 kts | 196° |
| 2026-05-07 20:05 | 54.60832 | -1.27362 | 1906 ft | 98 kts | 195° |
| 2026-05-07 20:05 | 54.60177 | -1.27755 | 1903 ft | 100 kts | 197° |
| 2026-05-07 20:06 | 54.59523 | -1.28162 | 1925 ft | 101 kts | 196° |
| 2026-05-07 20:06 | 54.58854 | -1.28584 | 1924 ft | 104 kts | 199° |
| 2026-05-07 20:06 | 54.58271 | -1.29353 | 1925 ft | 104 kts | 213° |
| 2026-05-07 20:06 | 54.57761 | -1.30137 | 1888 ft | 89 kts | 214° |
| 2026-05-07 20:07 | 54.57360 | -1.30848 | 1838 ft | 79 kts | 216° |
| 2026-05-07 20:07 | 54.56993 | -1.31534 | 1720 ft | 78 kts | 216° |
| 2026-05-07 20:07 | 54.56623 | -1.32220 | 1645 ft | 80 kts | 216° |
| 2026-05-07 20:07 | 54.56217 | -1.32961 | 1534 ft | 86 kts | 216° |
| 2026-05-07 20:08 | 54.55807 | -1.33723 | 1402 ft | 89 kts | 219° |
| 2026-05-07 20:08 | 54.55405 | -1.34526 | 1280 ft | 88 kts | 219° |
| 2026-05-07 20:08 | 54.54991 | -1.35331 | 1134 ft | 91 kts | 221° |
| 2026-05-07 20:08 | 54.54573 | -1.36125 | 1016 ft | 88 kts | 217° |
| 2026-05-07 20:09 | 54.54146 | -1.36915 | 912 ft | 92 kts | 217° |
| 2026-05-07 20:09 | 54.53701 | -1.37747 | 755 ft | 96 kts | 217° |
| 2026-05-07 20:09 | 54.53253 | -1.38572 | 619 ft | 93 kts | 218° |
| 2026-05-07 20:10 | 54.52384 | -1.40184 | 398 ft | 93 kts | 218° |
| 2026-05-07 20:10 | 54.51951 | -1.41021 | 276 ft | 94 kts | 219° |
| 2026-05-07 20:10 | 54.51553 | -1.41772 | 574 ft | 84 kts | 220° |
| 2026-05-07 20:10 | 54.51150 | -1.42505 | 873 ft | 82 kts | 220° |
| 2026-05-07 20:11 | 54.50778 | -1.43228 | 1103 ft | 77 kts | 216° |
| 2026-05-07 20:11 | 54.50487 | -1.43931 | 1207 ft | 69 kts | 229° |
| 2026-05-07 20:11 | 54.50200 | -1.44590 | 1244 ft | 68 kts | 215° |
| 2026-05-07 20:11 | 54.49906 | -1.45208 | 1367 ft | 67 kts | 217° |
| 2026-05-07 20:12 | 54.49629 | -1.45884 | 1476 ft | 70 kts | 223° |
| 2026-05-07 20:12 | 54.49377 | -1.46609 | 1583 ft | 71 kts | 225° |
| 2026-05-07 20:12 | 54.49268 | -1.47476 | 1612 ft | 94 kts | 278° |
| 2026-05-07 20:12 | 54.49824 | -1.48183 | 1689 ft | 107 kts | 342° |
| 2026-05-07 20:13 | 54.50568 | -1.48115 | 1783 ft | 107 kts | 4° |
| 2026-05-07 20:13 | 54.51301 | -1.47961 | 1891 ft | 108 kts | 2° |
| 2026-05-07 20:13 | 54.52113 | -1.47824 | 1851 ft | 124 kts | 0° |
| 2026-05-07 20:13 | 54.52995 | -1.47686 | 1869 ft | 131 kts | 359° |
| 2026-05-07 20:14 | 54.53914 | -1.47443 | 1856 ft | 135 kts | 15° |
| 2026-05-07 20:14 | 54.54776 | -1.46863 | 1855 ft | 132 kts | 21° |
| 2026-05-07 20:14 | 54.55596 | -1.46216 | 1834 ft | 129 kts | 27° |
| 2026-05-07 20:14 | 54.56349 | -1.45446 | 1848 ft | 124 kts | 35° |
| 2026-05-07 20:15 | 54.57071 | -1.44658 | 1905 ft | 123 kts | 34° |
| 2026-05-07 20:15 | 54.57800 | -1.43875 | 1932 ft | 123 kts | 35° |
| 2026-05-07 20:15 | 54.58519 | -1.43051 | 1917 ft | 125 kts | 36° |
| 2026-05-07 20:15 | 54.59244 | -1.42226 | 1907 ft | 125 kts | 35° |
| 2026-05-07 20:16 | 54.59979 | -1.41381 | 1866 ft | 129 kts | 35° |
| 2026-05-07 20:16 | 54.60656 | -1.40407 | 1887 ft | 125 kts | 53° |
| 2026-05-07 20:16 | 54.61189 | -1.39239 | 1910 ft | 124 kts | 59° |
| 2026-05-07 20:16 | 54.61713 | -1.38037 | 1878 ft | 128 kts | 59° |
| 2026-05-07 20:17 | 54.62251 | -1.36786 | 1844 ft | 128 kts | 59° |
| 2026-05-07 20:17 | 54.62782 | -1.35578 | 1847 ft | 127 kts | 58° |
| 2026-05-07 20:17 | 54.63273 | -1.34329 | 1851 ft | 123 kts | 70° |
| 2026-05-07 20:17 | 54.63389 | -1.32999 | 1852 ft | 106 kts | 110° |
| 2026-05-07 20:18 | 54.63046 | -1.31966 | 1841 ft | 98 kts | 133° |
| 2026-05-07 20:18 | 54.62662 | -1.31040 | 1898 ft | 94 kts | 133° |
| 2026-05-07 20:18 | 54.62280 | -1.30128 | 1905 ft | 94 kts | 133° |
| 2026-05-07 20:18 | 54.61900 | -1.29190 | 1884 ft | 97 kts | 132° |
| 2026-05-07 20:19 | 54.61515 | -1.28211 | 1859 ft | 99 kts | 132° |
| 2026-05-07 20:19 | 54.61140 | -1.27229 | 1861 ft | 97 kts | 131° |
| 2026-05-07 20:19 | 54.60686 | -1.26474 | 1850 ft | 87 kts | 167° |
| 2026-05-07 20:19 | 54.60119 | -1.26673 | 1850 ft | 87 kts | 202° |
| 2026-05-07 20:20 | 54.59605 | -1.27255 | 1860 ft | 87 kts | 204° |
| 2026-05-07 20:20 | 54.59107 | -1.27872 | 1872 ft | 89 kts | 211° |
| 2026-05-07 20:20 | 54.58655 | -1.28643 | 1880 ft | 92 kts | 213° |
| 2026-05-07 20:20 | 54.58202 | -1.29441 | 1859 ft | 90 kts | 213° |
| 2026-05-07 20:21 | 54.57827 | -1.30142 | 1918 ft | 71 kts | 214° |
| 2026-05-07 20:21 | 54.57484 | -1.30750 | 1801 ft | 72 kts | 211° |
| 2026-05-07 20:21 | 54.57122 | -1.31377 | 1674 ft | 74 kts | 212° |
| 2026-05-07 20:21 | 54.56756 | -1.32033 | 1569 ft | 78 kts | 213° |
| 2026-05-07 20:22 | 54.56379 | -1.32722 | 1467 ft | 79 kts | 215° |
| 2026-05-07 20:22 | 54.56010 | -1.33416 | 1374 ft | 78 kts | 216° |
| 2026-05-07 20:22 | 54.55659 | -1.34119 | 1306 ft | 78 kts | 214° |
| 2026-05-07 20:22 | 54.55287 | -1.34829 | 1204 ft | 81 kts | 216° |
| 2026-05-07 20:23 | 54.54893 | -1.35562 | 1085 ft | 84 kts | 216° |
| 2026-05-07 20:23 | 54.54495 | -1.36303 | 952 ft | 85 kts | 216° |
| 2026-05-07 20:23 | 54.54095 | -1.37068 | 848 ft | 87 kts | 215° |
| 2026-05-07 20:23 | 54.53696 | -1.37868 | 706 ft | 88 kts | 215° |
| 2026-05-07 20:24 | 54.53288 | -1.38644 | 575 ft | 88 kts | 216° |
| 2026-05-07 20:24 | 54.52880 | -1.39396 | 524 ft | 81 kts | 218° |
| 2026-05-07 20:24 | 54.52523 | -1.40108 | 617 ft | 77 kts | 216° |
| 2026-05-07 20:24 | 54.52166 | -1.40804 | 739 ft | 76 kts | 213° |
| 2026-05-07 20:25 | 54.51823 | -1.41463 | 863 ft | 72 kts | 211° |
| 2026-05-07 20:25 | 54.51481 | -1.42118 | 1015 ft | 78 kts | 218° |
| 2026-05-07 20:25 | 54.51108 | -1.42806 | 1317 ft | 80 kts | 219° |
| 2026-05-07 20:25 | 54.50760 | -1.43524 | 1653 ft | 81 kts | 234° |
| 2026-05-07 20:26 | 54.50958 | -1.44564 | 1898 ft | 114 kts | 306° |
| 2026-05-07 20:26 | 54.51686 | -1.45113 | 2245 ft | 116 kts | 336° |
| 2026-05-07 20:26 | 54.52441 | -1.45430 | 2603 ft | 110 kts | 341° |
| 2026-05-07 20:26 | 54.53172 | -1.45726 | 2915 ft | 108 kts | 339° |
| 2026-05-07 20:27 | 54.53961 | -1.46053 | 2957 ft | 123 kts | 339° |
| 2026-05-07 20:27 | 54.54768 | -1.46400 | 3045 ft | 106 kts | 339° |
| 2026-05-07 20:27 | 54.55435 | -1.46649 | 2989 ft | 103 kts | 338° |
| 2026-05-07 20:27 | 54.56228 | -1.47004 | 3022 ft | 128 kts | 338° |
| 2026-05-07 20:28 | 54.57131 | -1.47457 | 3076 ft | 143 kts | 338° |
| 2026-05-07 20:28 | 54.58056 | -1.47939 | 3135 ft | 124 kts | 338° |
| 2026-05-07 20:28 | 54.58863 | -1.47936 | 3054 ft | 113 kts | 7° |
| 2026-05-07 20:28 | 54.59475 | -1.47257 | 3029 ft | 100 kts | 62° |
| 2026-05-07 20:29 | 54.59609 | -1.46242 | 2990 ft | 77 kts | 116° |
| 2026-05-07 20:29 | 54.59325 | -1.45623 | 2951 ft | 73 kts | 152° |
| 2026-05-07 20:29 | 54.59034 | -1.45250 | 2982 ft | 89 kts | 154° |
| 2026-05-07 20:29 | 54.58326 | -1.44376 | 3012 ft | 85 kts | 148° |
| 2026-05-07 20:30 | 54.58068 | -1.43998 | 3010 ft | 66 kts | 149° |
| 2026-05-07 20:30 | 54.57657 | -1.43332 | 2989 ft | 68 kts | 150° |
| 2026-05-07 20:30 | 54.57189 | -1.42701 | 2986 ft | 99 kts | 152° |
| 2026-05-07 20:30 | 54.56588 | -1.41954 | 3052 ft | 114 kts | 152° |
| 2026-05-07 20:31 | 54.55928 | -1.41523 | 3100 ft | 101 kts | 214° |
| 2026-05-07 20:31 | 54.56042 | -1.42222 | 3060 ft | 140 kts | 354° |
| 2026-05-07 20:31 | 54.56157 | -1.41140 | 3075 ft | 112 kts | 135° |
| 2026-05-07 20:31 | 54.55609 | -1.40175 | 3037 ft | 120 kts | 132° |
| 2026-05-07 20:32 | 54.56077 | -1.39208 | 3011 ft | 139 kts | 334° |
| 2026-05-07 20:32 | 54.56094 | -1.40158 | 3005 ft | 102 kts | 178° |
| 2026-05-07 20:32 | 54.55432 | -1.39600 | 3016 ft | 108 kts | 155° |
| 2026-05-07 20:32 | 54.54927 | -1.39164 | 3493 ft | 71 kts | 159° |
| 2026-05-07 20:33 | 54.54404 | -1.38295 | 3061 ft | 117 kts | 144° |
| 2026-05-07 20:33 | 54.53702 | -1.38164 | 2778 ft | 133 kts | 227° |
| 2026-05-07 20:33 | 54.53310 | -1.38224 | 3768 ft | 74 kts | 152° |
| 2026-05-07 20:33 | 54.52901 | -1.37457 | 4021 ft | 85 kts | 129° |
| 2026-05-07 20:34 | 54.52574 | -1.36333 | 3986 ft | 116 kts | 126° |
| 2026-05-07 20:34 | 54.52298 | -1.35007 | 3861 ft | 124 kts | 99° |
| 2026-05-07 20:34 | 54.52714 | -1.33386 | 3530 ft | 170 kts | 58° |
| 2026-05-07 20:34 | 54.53412 | -1.31689 | 3344 ft | 176 kts | 59° |
| 2026-05-07 20:35 | 54.54099 | -1.29950 | 3097 ft | 179 kts | 61° |
| 2026-05-07 20:35 | 54.54866 | -1.28235 | 2851 ft | 183 kts | 42° |
| 2026-05-07 20:35 | 54.55899 | -1.26987 | 2697 ft | 179 kts | 38° |